sensor_id;sensor_type;location;lat;lon;timestamp;temperature;humidity
33492;DHT22;20010;51.488;7.232;2022-12-07T00:01:20;4.70;99.90
33492;DHT22;20010;51.488;7.232;2022-12-07T00:03:49;4.70;99.90
33492;DHT22;20010;51.488;7.232;2022-12-07T00:06:17;4.70;99.90
33492;DHT22;20010;51.488;7.232;2022-12-07T00:08:45;4.70;99.90
33492;DHT22;20010;51.488;7.232;2022-12-07T00:11:20;4.70;99.90
33492;DHT22;20010;51.488;7.232;2022-12-07T00:13:55;4.70;99.90
33492;DHT22;20010;51.488;7.232;2022-12-07T00:16:25;4.70;99.90
33492;DHT22;20010;51.488;7.232;2022-12-07T00:18:52;4.70;99.90
33492;DHT22;20010;51.488;7.232;2022-12-07T00:21:22;4.70;99.90
33492;DHT22;20010;51.488;7.232;2022-12-07T00:23:50;4.80;99.90
33492;DHT22;20010;51.488;7.232;2022-12-07T00:26:24;4.70;99.90
33492;DHT22;20010;51.488;7.232;2022-12-07T00:28:54;4.70;99.90
33492;DHT22;20010;51.488;7.232;2022-12-07T00:31:24;4.70;99.90
33492;DHT22;20010;51.488;7.232;2022-12-07T00:33:51;4.70;99.90
33492;DHT22;20010;51.488;7.232;2022-12-07T00:36:21;4.70;99.90
33492;DHT22;20010;51.488;7.232;2022-12-07T00:38:54;4.70;99.90
33492;DHT22;20010;51.488;7.232;2022-12-07T00:41:23;4.80;99.90
33492;DHT22;20010;51.488;7.232;2022-12-07T00:43:50;4.70;99.90
33492;DHT22;20010;51.488;7.232;2022-12-07T00:46:18;4.70;99.90
33492;DHT22;20010;51.488;7.232;2022-12-07T00:48:46;4.70;99.90
33492;DHT22;20010;51.488;7.232;2022-12-07T00:51:15;4.70;99.90
33492;DHT22;20010;51.488;7.232;2022-12-07T00:53:42;4.70;99.90
33492;DHT22;20010;51.488;7.232;2022-12-07T00:56:20;4.70;99.90
33492;DHT22;20010;51.488;7.232;2022-12-07T00:59:02;4.70;99.90
33492;DHT22;20010;51.488;7.232;2022-12-07T01:01:32;4.70;99.90
33492;DHT22;20010;51.488;7.232;2022-12-07T01:03:59;4.70;99.90
33492;DHT22;20010;51.488;7.232;2022-12-07T01:06:28;4.70;99.90
33492;DHT22;20010;51.488;7.232;2022-12-07T01:08:55;4.70;99.90
33492;DHT22;20010;51.488;7.232;2022-12-07T01:11:25;4.80;99.90
33492;DHT22;20010;51.488;7.232;2022-12-07T01:13:54;4.70;99.90
33492;DHT22;20010;51.488;7.232;2022-12-07T01:16:23;4.70;99.90
33492;DHT22;20010;51.488;7.232;2022-12-07T01:18:52;4.70;99.90
33492;DHT22;20010;51.488;7.232;2022-12-07T01:21:28;4.70;99.90
33492;DHT22;20010;51.488;7.232;2022-12-07T01:23:57;4.70;99.90
33492;DHT22;20010;51.488;7.232;2022-12-07T01:26:24;4.70;99.90
33492;DHT22;20010;51.488;7.232;2022-12-07T01:28:52;4.70;99.90
33492;DHT22;20010;51.488;7.232;2022-12-07T01:31:24;4.70;99.90
33492;DHT22;20010;51.488;7.232;2022-12-07T01:33:56;4.80;99.90
33492;DHT22;20010;51.488;7.232;2022-12-07T01:36:35;4.70;99.90
33492;DHT22;20010;51.488;7.232;2022-12-07T01:39:04;4.70;99.90
33492;DHT22;20010;51.488;7.232;2022-12-07T01:41:35;4.70;99.90
33492;DHT22;20010;51.488;7.232;2022-12-07T01:44:27;4.60;99.90
33492;DHT22;20010;51.488;7.232;2022-12-07T01:47:02;4.70;99.90
33492;DHT22;20010;51.488;7.232;2022-12-07T01:49:41;4.70;99.90
33492;DHT22;20010;51.488;7.232;2022-12-07T01:54:39;4.70;99.90
33492;DHT22;20010;51.488;7.232;2022-12-07T01:57:07;4.70;99.90
33492;DHT22;20010;51.488;7.232;2022-12-07T01:59:34;4.70;99.90
33492;DHT22;20010;51.488;7.232;2022-12-07T02:02:03;4.70;99.90
33492;DHT22;20010;51.488;7.232;2022-12-07T02:04:32;4.60;99.90
33492;DHT22;20010;51.488;7.232;2022-12-07T02:06:59;4.70;99.90
33492;DHT22;20010;51.488;7.232;2022-12-07T02:09:26;4.60;99.90
33492;DHT22;20010;51.488;7.232;2022-12-07T02:11:54;4.70;99.90
33492;DHT22;20010;51.488;7.232;2022-12-07T02:14:21;4.70;99.90
33492;DHT22;20010;51.488;7.232;2022-12-07T02:25:06;4.70;99.90
33492;DHT22;20010;51.488;7.232;2022-12-07T02:27:56;4.60;99.90
33492;DHT22;20010;51.488;7.232;2022-12-07T02:30:28;4.70;99.90
33492;DHT22;20010;51.488;7.232;2022-12-07T02:33:14;4.60;99.90
33492;DHT22;20010;51.488;7.232;2022-12-07T02:35:59;4.60;99.90
33492;DHT22;20010;51.488;7.232;2022-12-07T02:38:35;4.60;99.90
33492;DHT22;20010;51.488;7.232;2022-12-07T02:41:08;4.60;99.90
33492;DHT22;20010;51.488;7.232;2022-12-07T02:43:41;4.60;99.90
33492;DHT22;20010;51.488;7.232;2022-12-07T02:46:16;4.60;99.90
33492;DHT22;20010;51.488;7.232;2022-12-07T02:48:45;4.60;99.90
33492;DHT22;20010;51.488;7.232;2022-12-07T02:51:13;4.60;99.90
33492;DHT22;20010;51.488;7.232;2022-12-07T02:53:43;4.60;99.90
33492;DHT22;20010;51.488;7.232;2022-12-07T03:02:27;4.50;99.90
33492;DHT22;20010;51.488;7.232;2022-12-07T03:10:59;4.50;99.90
33492;DHT22;20010;51.488;7.232;2022-12-07T03:16:35;4.50;99.90
33492;DHT22;20010;51.488;7.232;2022-12-07T03:19:15;4.40;99.90
33492;DHT22;20010;51.488;7.232;2022-12-07T03:21:51;4.50;99.90
33492;DHT22;20010;51.488;7.232;2022-12-07T03:24:22;4.40;99.90
33492;DHT22;20010;51.488;7.232;2022-12-07T03:27:06;4.40;99.90
33492;DHT22;20010;51.488;7.232;2022-12-07T03:29:38;4.30;99.90
33492;DHT22;20010;51.488;7.232;2022-12-07T03:32:37;4.30;99.90
33492;DHT22;20010;51.488;7.232;2022-12-07T03:35:34;4.30;99.90
33492;DHT22;20010;51.488;7.232;2022-12-07T03:40:37;4.30;99.90
33492;DHT22;20010;51.488;7.232;2022-12-07T03:43:06;4.30;99.90
33492;DHT22;20010;51.488;7.232;2022-12-07T03:45:39;4.20;99.90
33492;DHT22;20010;51.488;7.232;2022-12-07T03:48:22;4.10;99.90
33492;DHT22;20010;51.488;7.232;2022-12-07T03:51:05;4.10;99.90
33492;DHT22;20010;51.488;7.232;2022-12-07T03:53:38;4.10;99.90
33492;DHT22;20010;51.488;7.232;2022-12-07T03:56:08;4.00;99.90
33492;DHT22;20010;51.488;7.232;2022-12-07T03:58:37;4.00;99.90
33492;DHT22;20010;51.488;7.232;2022-12-07T04:01:04;3.90;99.90
33492;DHT22;20010;51.488;7.232;2022-12-07T04:03:31;3.90;99.90
33492;DHT22;20010;51.488;7.232;2022-12-07T04:05:58;3.90;99.90
33492;DHT22;20010;51.488;7.232;2022-12-07T04:08:25;3.90;99.90
33492;DHT22;20010;51.488;7.232;2022-12-07T04:10:52;3.90;99.90
33492;DHT22;20010;51.488;7.232;2022-12-07T04:13:19;3.80;99.90
33492;DHT22;20010;51.488;7.232;2022-12-07T04:15:46;3.80;99.90
33492;DHT22;20010;51.488;7.232;2022-12-07T04:18:13;3.80;99.90
33492;DHT22;20010;51.488;7.232;2022-12-07T04:20:39;3.80;99.90
33492;DHT22;20010;51.488;7.232;2022-12-07T04:23:06;3.80;99.90
33492;DHT22;20010;51.488;7.232;2022-12-07T04:25:33;3.80;99.90
33492;DHT22;20010;51.488;7.232;2022-12-07T04:28:00;3.90;99.90
33492;DHT22;20010;51.488;7.232;2022-12-07T04:30:27;3.80;99.90
33492;DHT22;20010;51.488;7.232;2022-12-07T04:32:53;3.80;99.90
33492;DHT22;20010;51.488;7.232;2022-12-07T04:35:20;3.80;99.90
33492;DHT22;20010;51.488;7.232;2022-12-07T04:37:47;3.80;99.90
33492;DHT22;20010;51.488;7.232;2022-12-07T04:40:14;3.80;99.90
33492;DHT22;20010;51.488;7.232;2022-12-07T04:42:41;3.80;99.90
33492;DHT22;20010;51.488;7.232;2022-12-07T04:45:08;3.90;99.90
33492;DHT22;20010;51.488;7.232;2022-12-07T04:47:35;3.90;99.90
33492;DHT22;20010;51.488;7.232;2022-12-07T04:50:02;3.80;99.90
33492;DHT22;20010;51.488;7.232;2022-12-07T04:52:30;3.80;99.90
33492;DHT22;20010;51.488;7.232;2022-12-07T04:54:56;3.80;99.90
33492;DHT22;20010;51.488;7.232;2022-12-07T04:57:23;3.80;99.90
33492;DHT22;20010;51.488;7.232;2022-12-07T04:59:50;3.80;99.90
33492;DHT22;20010;51.488;7.232;2022-12-07T05:02:17;3.80;99.90
33492;DHT22;20010;51.488;7.232;2022-12-07T05:04:44;3.90;99.90
33492;DHT22;20010;51.488;7.232;2022-12-07T05:07:10;3.80;99.90
33492;DHT22;20010;51.488;7.232;2022-12-07T05:09:37;3.80;99.90
33492;DHT22;20010;51.488;7.232;2022-12-07T05:12:04;3.80;99.90
33492;DHT22;20010;51.488;7.232;2022-12-07T05:14:31;3.80;99.90
33492;DHT22;20010;51.488;7.232;2022-12-07T05:16:57;3.80;99.90
33492;DHT22;20010;51.488;7.232;2022-12-07T05:19:24;3.80;99.90
33492;DHT22;20010;51.488;7.232;2022-12-07T05:21:52;3.80;99.90
33492;DHT22;20010;51.488;7.232;2022-12-07T05:24:19;3.80;99.90
33492;DHT22;20010;51.488;7.232;2022-12-07T05:26:46;3.80;99.90
33492;DHT22;20010;51.488;7.232;2022-12-07T05:29:14;3.80;99.90
33492;DHT22;20010;51.488;7.232;2022-12-07T05:31:41;3.80;99.90
33492;DHT22;20010;51.488;7.232;2022-12-07T05:34:09;3.80;99.90
33492;DHT22;20010;51.488;7.232;2022-12-07T05:36:35;3.80;99.90
33492;DHT22;20010;51.488;7.232;2022-12-07T05:39:03;3.80;99.90
33492;DHT22;20010;51.488;7.232;2022-12-07T05:41:30;3.70;99.90
33492;DHT22;20010;51.488;7.232;2022-12-07T05:44:15;3.70;99.90
33492;DHT22;20010;51.488;7.232;2022-12-07T05:46:43;3.70;99.90
33492;DHT22;20010;51.488;7.232;2022-12-07T05:49:10;3.70;99.90
33492;DHT22;20010;51.488;7.232;2022-12-07T05:51:37;3.80;99.90
33492;DHT22;20010;51.488;7.232;2022-12-07T05:54:03;3.70;99.90
33492;DHT22;20010;51.488;7.232;2022-12-07T05:56:30;3.70;99.90
33492;DHT22;20010;51.488;7.232;2022-12-07T05:58:57;3.70;99.90
33492;DHT22;20010;51.488;7.232;2022-12-07T06:01:42;3.70;99.90
33492;DHT22;20010;51.488;7.232;2022-12-07T06:04:09;3.70;99.90
33492;DHT22;20010;51.488;7.232;2022-12-07T06:06:36;3.70;99.90
33492;DHT22;20010;51.488;7.232;2022-12-07T06:09:03;3.70;99.90
33492;DHT22;20010;51.488;7.232;2022-12-07T06:11:30;3.70;99.90
33492;DHT22;20010;51.488;7.232;2022-12-07T06:14:15;3.70;99.90
33492;DHT22;20010;51.488;7.232;2022-12-07T06:16:42;3.80;99.90
33492;DHT22;20010;51.488;7.232;2022-12-07T06:19:09;3.80;99.90
33492;DHT22;20010;51.488;7.232;2022-12-07T06:21:36;3.80;99.90
33492;DHT22;20010;51.488;7.232;2022-12-07T06:24:03;3.80;99.90
33492;DHT22;20010;51.488;7.232;2022-12-07T06:26:30;3.80;99.90
33492;DHT22;20010;51.488;7.232;2022-12-07T06:28:57;3.80;99.90
33492;DHT22;20010;51.488;7.232;2022-12-07T06:31:24;3.70;99.90
33492;DHT22;20010;51.488;7.232;2022-12-07T06:33:50;3.70;99.90
33492;DHT22;20010;51.488;7.232;2022-12-07T06:36:17;3.80;99.90
33492;DHT22;20010;51.488;7.232;2022-12-07T06:38:52;3.70;99.90
33492;DHT22;20010;51.488;7.232;2022-12-07T06:41:19;3.70;99.90
33492;DHT22;20010;51.488;7.232;2022-12-07T06:43:46;3.80;99.90
33492;DHT22;20010;51.488;7.232;2022-12-07T06:46:21;3.70;99.90
33492;DHT22;20010;51.488;7.232;2022-12-07T06:48:48;3.80;99.90
33492;DHT22;20010;51.488;7.232;2022-12-07T06:51:15;3.70;99.90
33492;DHT22;20010;51.488;7.232;2022-12-07T06:53:42;3.70;99.90
33492;DHT22;20010;51.488;7.232;2022-12-07T06:56:09;3.70;99.90
33492;DHT22;20010;51.488;7.232;2022-12-07T06:58:36;3.70;99.90
33492;DHT22;20010;51.488;7.232;2022-12-07T07:01:08;3.70;99.90
33492;DHT22;20010;51.488;7.232;2022-12-07T07:03:35;3.80;99.90
33492;DHT22;20010;51.488;7.232;2022-12-07T07:06:02;3.70;99.90
33492;DHT22;20010;51.488;7.232;2022-12-07T07:08:29;3.70;99.90
33492;DHT22;20010;51.488;7.232;2022-12-07T07:10:56;3.70;99.90
33492;DHT22;20010;51.488;7.232;2022-12-07T07:13:23;3.70;99.90
33492;DHT22;20010;51.488;7.232;2022-12-07T07:15:50;3.60;99.90
33492;DHT22;20010;51.488;7.232;2022-12-07T07:18:17;3.70;99.90
33492;DHT22;20010;51.488;7.232;2022-12-07T07:20:43;3.70;99.90
33492;DHT22;20010;51.488;7.232;2022-12-07T07:23:10;3.60;99.90
33492;DHT22;20010;51.488;7.232;2022-12-07T07:25:38;3.70;99.90
33492;DHT22;20010;51.488;7.232;2022-12-07T07:28:05;3.70;99.90
33492;DHT22;20010;51.488;7.232;2022-12-07T07:30:32;3.70;99.90
33492;DHT22;20010;51.488;7.232;2022-12-07T07:33:00;3.70;99.90
33492;DHT22;20010;51.488;7.232;2022-12-07T07:35:28;3.70;99.90
33492;DHT22;20010;51.488;7.232;2022-12-07T07:37:55;3.70;99.90
33492;DHT22;20010;51.488;7.232;2022-12-07T07:40:23;3.70;99.90
33492;DHT22;20010;51.488;7.232;2022-12-07T07:42:50;3.70;99.90
33492;DHT22;20010;51.488;7.232;2022-12-07T07:45:21;3.80;99.90
33492;DHT22;20010;51.488;7.232;2022-12-07T07:47:49;3.80;99.90
33492;DHT22;20010;51.488;7.232;2022-12-07T07:50:17;3.80;99.90
33492;DHT22;20010;51.488;7.232;2022-12-07T07:52:45;3.80;99.90
33492;DHT22;20010;51.488;7.232;2022-12-07T07:55:12;3.80;99.90
33492;DHT22;20010;51.488;7.232;2022-12-07T07:57:40;3.70;99.90
33492;DHT22;20010;51.488;7.232;2022-12-07T08:00:09;3.70;99.90
33492;DHT22;20010;51.488;7.232;2022-12-07T08:02:37;3.70;99.90
33492;DHT22;20010;51.488;7.232;2022-12-07T08:05:04;3.70;99.90
33492;DHT22;20010;51.488;7.232;2022-12-07T08:07:31;3.70;99.90
33492;DHT22;20010;51.488;7.232;2022-12-07T08:09:57;3.70;99.90
33492;DHT22;20010;51.488;7.232;2022-12-07T08:12:24;3.80;99.90
33492;DHT22;20010;51.488;7.232;2022-12-07T08:14:51;3.80;99.90
33492;DHT22;20010;51.488;7.232;2022-12-07T08:17:18;3.80;99.90
33492;DHT22;20010;51.488;7.232;2022-12-07T08:19:45;3.80;99.90
33492;DHT22;20010;51.488;7.232;2022-12-07T08:22:12;3.80;99.90
33492;DHT22;20010;51.488;7.232;2022-12-07T08:24:38;3.90;99.90
33492;DHT22;20010;51.488;7.232;2022-12-07T08:27:05;3.90;99.90
33492;DHT22;20010;51.488;7.232;2022-12-07T08:29:32;3.90;99.90
33492;DHT22;20010;51.488;7.232;2022-12-07T08:31:59;3.90;99.90
33492;DHT22;20010;51.488;7.232;2022-12-07T08:34:35;3.90;99.90
33492;DHT22;20010;51.488;7.232;2022-12-07T08:37:02;3.90;99.90
33492;DHT22;20010;51.488;7.232;2022-12-07T08:39:29;3.90;99.90
33492;DHT22;20010;51.488;7.232;2022-12-07T08:41:58;4.00;99.90
33492;DHT22;20010;51.488;7.232;2022-12-07T08:44:25;4.00;99.90
33492;DHT22;20010;51.488;7.232;2022-12-07T08:47:02;4.00;99.90
33492;DHT22;20010;51.488;7.232;2022-12-07T08:49:41;4.10;99.90
33492;DHT22;20010;51.488;7.232;2022-12-07T08:52:10;4.10;99.90
33492;DHT22;20010;51.488;7.232;2022-12-07T08:54:40;4.10;99.90
33492;DHT22;20010;51.488;7.232;2022-12-07T08:57:07;4.10;99.90
33492;DHT22;20010;51.488;7.232;2022-12-07T08:59:36;4.20;99.90
33492;DHT22;20010;51.488;7.232;2022-12-07T09:02:05;4.20;99.90
33492;DHT22;20010;51.488;7.232;2022-12-07T09:04:32;4.20;99.90
33492;DHT22;20010;51.488;7.232;2022-12-07T09:06:59;4.30;99.90
33492;DHT22;20010;51.488;7.232;2022-12-07T09:09:26;4.20;99.90
33492;DHT22;20010;51.488;7.232;2022-12-07T09:11:53;4.20;99.90
33492;DHT22;20010;51.488;7.232;2022-12-07T09:14:20;4.20;99.90
33492;DHT22;20010;51.488;7.232;2022-12-07T09:16:46;4.20;99.90
33492;DHT22;20010;51.488;7.232;2022-12-07T09:19:13;4.20;99.90
33492;DHT22;20010;51.488;7.232;2022-12-07T09:21:40;4.30;99.90
33492;DHT22;20010;51.488;7.232;2022-12-07T09:24:07;4.30;99.90
33492;DHT22;20010;51.488;7.232;2022-12-07T09:26:35;4.20;99.90
33492;DHT22;20010;51.488;7.232;2022-12-07T09:29:03;4.30;99.90
33492;DHT22;20010;51.488;7.232;2022-12-07T09:31:29;4.40;99.90
33492;DHT22;20010;51.488;7.232;2022-12-07T09:33:58;4.30;99.90
33492;DHT22;20010;51.488;7.232;2022-12-07T09:36:26;4.40;99.90
33492;DHT22;20010;51.488;7.232;2022-12-07T09:38:53;4.40;99.90
33492;DHT22;20010;51.488;7.232;2022-12-07T09:41:21;4.40;99.90
33492;DHT22;20010;51.488;7.232;2022-12-07T09:43:49;4.40;99.90
33492;DHT22;20010;51.488;7.232;2022-12-07T09:46:18;4.40;99.90
33492;DHT22;20010;51.488;7.232;2022-12-07T09:48:46;4.40;99.90
33492;DHT22;20010;51.488;7.232;2022-12-07T09:51:23;4.40;99.90
33492;DHT22;20010;51.488;7.232;2022-12-07T09:53:53;4.40;99.90
33492;DHT22;20010;51.488;7.232;2022-12-07T09:56:22;4.40;99.90
33492;DHT22;20010;51.488;7.232;2022-12-07T09:58:51;4.40;99.90
33492;DHT22;20010;51.488;7.232;2022-12-07T10:01:21;4.50;99.90
33492;DHT22;20010;51.488;7.232;2022-12-07T10:03:52;4.50;99.90
33492;DHT22;20010;51.488;7.232;2022-12-07T10:06:19;4.50;99.90
33492;DHT22;20010;51.488;7.232;2022-12-07T10:08:47;4.50;99.90
33492;DHT22;20010;51.488;7.232;2022-12-07T10:11:13;4.50;99.90
33492;DHT22;20010;51.488;7.232;2022-12-07T10:13:45;4.50;99.90
33492;DHT22;20010;51.488;7.232;2022-12-07T10:22:09;4.60;99.90
33492;DHT22;20010;51.488;7.232;2022-12-07T10:24:37;4.60;99.90
33492;DHT22;20010;51.488;7.232;2022-12-07T10:27:29;4.70;99.90
33492;DHT22;20010;51.488;7.232;2022-12-07T10:29:57;4.70;99.90
33492;DHT22;20010;51.488;7.232;2022-12-07T10:32:33;4.70;99.90
33492;DHT22;20010;51.488;7.232;2022-12-07T10:35:24;4.70;99.90
33492;DHT22;20010;51.488;7.232;2022-12-07T10:37:52;4.80;99.90
33492;DHT22;20010;51.488;7.232;2022-12-07T10:40:29;4.80;99.90
33492;DHT22;20010;51.488;7.232;2022-12-07T10:54:08;5.00;99.90
33492;DHT22;20010;51.488;7.232;2022-12-07T11:00:30;5.00;99.90
33492;DHT22;20010;51.488;7.232;2022-12-07T11:02:35;5.00;99.90
33492;DHT22;20010;51.488;7.232;2022-12-07T11:08:11;5.00;99.90
33492;DHT22;20010;51.488;7.232;2022-12-07T11:10:55;5.00;99.90
33492;DHT22;20010;51.488;7.232;2022-12-07T11:13:39;5.10;99.90
33492;DHT22;20010;51.488;7.232;2022-12-07T11:19:28;5.10;99.90
33492;DHT22;20010;51.488;7.232;2022-12-07T11:22:05;5.10;99.90
33492;DHT22;20010;51.488;7.232;2022-12-07T11:25:13;5.10;99.90
33492;DHT22;20010;51.488;7.232;2022-12-07T11:27:56;5.10;99.90
33492;DHT22;20010;51.488;7.232;2022-12-07T11:30:38;5.20;99.90
33492;DHT22;20010;51.488;7.232;2022-12-07T11:38:52;5.20;99.90
33492;DHT22;20010;51.488;7.232;2022-12-07T11:41:25;5.20;99.90
33492;DHT22;20010;51.488;7.232;2022-12-07T11:46:27;5.30;99.90
33492;DHT22;20010;51.488;7.232;2022-12-07T11:49:04;5.30;99.90
33492;DHT22;20010;51.488;7.232;2022-12-07T11:51:36;5.40;99.90
33492;DHT22;20010;51.488;7.232;2022-12-07T11:54:26;5.50;99.90
33492;DHT22;20010;51.488;7.232;2022-12-07T11:56:56;5.40;99.90
33492;DHT22;20010;51.488;7.232;2022-12-07T11:59:43;5.40;99.90
33492;DHT22;20010;51.488;7.232;2022-12-07T12:02:18;5.30;99.90
33492;DHT22;20010;51.488;7.232;2022-12-07T12:05:05;5.30;99.90
33492;DHT22;20010;51.488;7.232;2022-12-07T12:07:39;5.30;99.90
33492;DHT22;20010;51.488;7.232;2022-12-07T12:10:30;5.20;99.90
33492;DHT22;20010;51.488;7.232;2022-12-07T12:13:14;5.20;99.90
33492;DHT22;20010;51.488;7.232;2022-12-07T12:19:00;5.20;99.90
33492;DHT22;20010;51.488;7.232;2022-12-07T12:21:31;5.20;99.90
33492;DHT22;20010;51.488;7.232;2022-12-07T12:24:26;5.20;99.90
33492;DHT22;20010;51.488;7.232;2022-12-07T12:27:07;5.30;99.90
33492;DHT22;20010;51.488;7.232;2022-12-07T12:29:37;5.30;99.90
33492;DHT22;20010;51.488;7.232;2022-12-07T12:32:15;5.30;99.90
33492;DHT22;20010;51.488;7.232;2022-12-07T12:35:20;5.30;99.90
33492;DHT22;20010;51.488;7.232;2022-12-07T12:37:47;5.30;99.90
33492;DHT22;20010;51.488;7.232;2022-12-07T12:42:47;5.40;99.90
33492;DHT22;20010;51.488;7.232;2022-12-07T12:45:27;5.40;99.90
33492;DHT22;20010;51.488;7.232;2022-12-07T12:47:59;5.40;99.90
33492;DHT22;20010;51.488;7.232;2022-12-07T12:50:32;5.50;99.90
33492;DHT22;20010;51.488;7.232;2022-12-07T12:53:23;5.50;99.90
33492;DHT22;20010;51.488;7.232;2022-12-07T12:58:36;5.60;99.90
33492;DHT22;20010;51.488;7.232;2022-12-07T13:01:40;5.60;99.90
33492;DHT22;20010;51.488;7.232;2022-12-07T13:04:26;5.70;99.90
33492;DHT22;20010;51.488;7.232;2022-12-07T13:06:53;5.70;99.90
33492;DHT22;20010;51.488;7.232;2022-12-07T13:09:26;5.70;99.90
33492;DHT22;20010;51.488;7.232;2022-12-07T13:12:03;5.70;99.90
33492;DHT22;20010;51.488;7.232;2022-12-07T13:17:12;5.70;99.90
33492;DHT22;20010;51.488;7.232;2022-12-07T13:19:59;5.60;99.90
33492;DHT22;20010;51.488;7.232;2022-12-07T13:27:37;5.70;99.90
33492;DHT22;20010;51.488;7.232;2022-12-07T13:30:20;5.70;99.90
33492;DHT22;20010;51.488;7.232;2022-12-07T13:32:55;5.60;99.90
33492;DHT22;20010;51.488;7.232;2022-12-07T13:35:37;5.60;99.90
33492;DHT22;20010;51.488;7.232;2022-12-07T13:38:15;5.60;99.90
33492;DHT22;20010;51.488;7.232;2022-12-07T13:40:43;5.50;99.90
33492;DHT22;20010;51.488;7.232;2022-12-07T13:43:25;5.60;99.90
33492;DHT22;20010;51.488;7.232;2022-12-07T13:45:59;5.50;99.90
33492;DHT22;20010;51.488;7.232;2022-12-07T13:51:03;5.60;99.90
33492;DHT22;20010;51.488;7.232;2022-12-07T13:53:30;5.50;99.90
33492;DHT22;20010;51.488;7.232;2022-12-07T13:55:58;5.50;99.90
33492;DHT22;20010;51.488;7.232;2022-12-07T13:58:27;5.50;99.90
33492;DHT22;20010;51.488;7.232;2022-12-07T14:00:56;5.50;99.90
33492;DHT22;20010;51.488;7.232;2022-12-07T14:03:29;5.40;99.90
33492;DHT22;20010;51.488;7.232;2022-12-07T14:06:16;5.30;99.90
33492;DHT22;20010;51.488;7.232;2022-12-07T14:08:44;5.20;99.90
33492;DHT22;20010;51.488;7.232;2022-12-07T14:11:19;4.90;99.90
33492;DHT22;20010;51.488;7.232;2022-12-07T14:16:32;4.60;99.90
33492;DHT22;20010;51.488;7.232;2022-12-07T14:19:05;4.50;99.90
33492;DHT22;20010;51.488;7.232;2022-12-07T14:21:47;4.40;99.90
33492;DHT22;20010;51.488;7.232;2022-12-07T14:24:20;4.30;99.90
33492;DHT22;20010;51.488;7.232;2022-12-07T14:26:49;4.30;99.90
33492;DHT22;20010;51.488;7.232;2022-12-07T14:31:55;4.20;99.90
33492;DHT22;20010;51.488;7.232;2022-12-07T14:34:23;4.20;99.90
33492;DHT22;20010;51.488;7.232;2022-12-07T14:36:50;4.20;99.90
33492;DHT22;20010;51.488;7.232;2022-12-07T14:39:17;4.20;99.90
33492;DHT22;20010;51.488;7.232;2022-12-07T14:41:44;4.20;99.90
33492;DHT22;20010;51.488;7.232;2022-12-07T14:44:18;4.40;99.90
33492;DHT22;20010;51.488;7.232;2022-12-07T14:46:51;4.30;99.90
33492;DHT22;20010;51.488;7.232;2022-12-07T14:49:38;4.30;99.90
33492;DHT22;20010;51.488;7.232;2022-12-07T14:52:08;4.30;99.90
33492;DHT22;20010;51.488;7.232;2022-12-07T14:54:57;4.20;99.90
33492;DHT22;20010;51.488;7.232;2022-12-07T14:57:24;4.20;99.90
33492;DHT22;20010;51.488;7.232;2022-12-07T14:59:51;4.30;99.90
33492;DHT22;20010;51.488;7.232;2022-12-07T15:02:18;4.30;99.90
33492;DHT22;20010;51.488;7.232;2022-12-07T15:04:45;4.30;99.90
33492;DHT22;20010;51.488;7.232;2022-12-07T15:07:19;4.30;99.90
33492;DHT22;20010;51.488;7.232;2022-12-07T15:09:47;4.30;99.90
33492;DHT22;20010;51.488;7.232;2022-12-07T15:12:14;4.20;99.90
33492;DHT22;20010;51.488;7.232;2022-12-07T15:14:41;4.20;99.90
33492;DHT22;20010;51.488;7.232;2022-12-07T15:17:10;4.30;99.90
33492;DHT22;20010;51.488;7.232;2022-12-07T15:19:53;4.20;99.90
33492;DHT22;20010;51.488;7.232;2022-12-07T15:22:20;4.20;99.90
33492;DHT22;20010;51.488;7.232;2022-12-07T15:24:47;4.20;99.90
33492;DHT22;20010;51.488;7.232;2022-12-07T15:27:13;4.20;99.90
33492;DHT22;20010;51.488;7.232;2022-12-07T15:29:40;4.20;99.90
33492;DHT22;20010;51.488;7.232;2022-12-07T15:32:07;4.20;99.90
33492;DHT22;20010;51.488;7.232;2022-12-07T15:34:34;4.20;99.90
33492;DHT22;20010;51.488;7.232;2022-12-07T15:37:07;4.10;99.90
33492;DHT22;20010;51.488;7.232;2022-12-07T15:39:35;4.20;99.90
33492;DHT22;20010;51.488;7.232;2022-12-07T15:42:02;4.20;99.90
33492;DHT22;20010;51.488;7.232;2022-12-07T15:44:29;4.10;99.90
33492;DHT22;20010;51.488;7.232;2022-12-07T15:47:15;4.20;99.90
33492;DHT22;20010;51.488;7.232;2022-12-07T15:49:41;4.10;99.90
33492;DHT22;20010;51.488;7.232;2022-12-07T15:52:08;4.10;99.90
33492;DHT22;20010;51.488;7.232;2022-12-07T15:54:35;4.10;99.90
33492;DHT22;20010;51.488;7.232;2022-12-07T15:57:02;4.20;99.90
33492;DHT22;20010;51.488;7.232;2022-12-07T15:59:29;4.10;99.90
33492;DHT22;20010;51.488;7.232;2022-12-07T16:01:57;4.20;99.90
33492;DHT22;20010;51.488;7.232;2022-12-07T16:04:27;4.10;99.90
33492;DHT22;20010;51.488;7.232;2022-12-07T16:06:54;4.20;99.90
33492;DHT22;20010;51.488;7.232;2022-12-07T16:09:21;4.20;99.90
33492;DHT22;20010;51.488;7.232;2022-12-07T16:11:47;4.10;99.90
33492;DHT22;20010;51.488;7.232;2022-12-07T16:14:16;4.20;99.90
33492;DHT22;20010;51.488;7.232;2022-12-07T16:16:43;4.20;99.90
33492;DHT22;20010;51.488;7.232;2022-12-07T16:19:10;4.20;99.90
33492;DHT22;20010;51.488;7.232;2022-12-07T16:21:37;4.20;99.90
33492;DHT22;20010;51.488;7.232;2022-12-07T16:24:05;4.10;99.90
33492;DHT22;20010;51.488;7.232;2022-12-07T16:26:32;4.20;99.90
33492;DHT22;20010;51.488;7.232;2022-12-07T16:28:59;4.20;99.90
33492;DHT22;20010;51.488;7.232;2022-12-07T16:31:27;4.20;99.90
33492;DHT22;20010;51.488;7.232;2022-12-07T16:33:56;4.20;99.90
33492;DHT22;20010;51.488;7.232;2022-12-07T16:36:24;4.20;99.90
33492;DHT22;20010;51.488;7.232;2022-12-07T16:39:12;4.20;99.90
33492;DHT22;20010;51.488;7.232;2022-12-07T16:41:39;4.30;99.90
33492;DHT22;20010;51.488;7.232;2022-12-07T16:44:09;4.30;99.90
33492;DHT22;20010;51.488;7.232;2022-12-07T16:46:36;4.30;99.90
33492;DHT22;20010;51.488;7.232;2022-12-07T16:49:04;4.30;99.90
33492;DHT22;20010;51.488;7.232;2022-12-07T16:51:31;4.30;99.90
33492;DHT22;20010;51.488;7.232;2022-12-07T16:53:58;4.40;99.90
33492;DHT22;20010;51.488;7.232;2022-12-07T16:56:25;4.30;99.90
33492;DHT22;20010;51.488;7.232;2022-12-07T16:58:53;4.30;99.90
33492;DHT22;20010;51.488;7.232;2022-12-07T17:01:22;4.30;99.90
33492;DHT22;20010;51.488;7.232;2022-12-07T17:03:49;4.30;99.90
33492;DHT22;20010;51.488;7.232;2022-12-07T17:08:43;4.30;99.90
33492;DHT22;20010;51.488;7.232;2022-12-07T17:11:17;4.30;99.90
33492;DHT22;20010;51.488;7.232;2022-12-07T17:13:44;4.40;99.90
33492;DHT22;20010;51.488;7.232;2022-12-07T17:16:29;4.40;99.90
33492;DHT22;20010;51.488;7.232;2022-12-07T17:18:57;4.40;99.90
33492;DHT22;20010;51.488;7.232;2022-12-07T17:21:24;4.40;99.90
33492;DHT22;20010;51.488;7.232;2022-12-07T17:23:51;4.40;99.90
33492;DHT22;20010;51.488;7.232;2022-12-07T17:26:21;4.40;99.90
33492;DHT22;20010;51.488;7.232;2022-12-07T17:28:48;4.40;99.90
33492;DHT22;20010;51.488;7.232;2022-12-07T17:31:16;4.50;99.90
33492;DHT22;20010;51.488;7.232;2022-12-07T17:33:44;4.40;99.90
33492;DHT22;20010;51.488;7.232;2022-12-07T17:36:11;4.40;99.90
33492;DHT22;20010;51.488;7.232;2022-12-07T17:38:39;4.50;99.90